sensor_id;sensor_type;location;lat;lon;timestamp;P1;durP1;ratioP1;P2;durP2;ratioP2
73264;SDS011;61493;51.008;14.088;2022-09-09T00:06:35;3.55;;;1.65;;
73264;SDS011;61493;51.008;14.088;2022-09-09T00:09:13;2.40;;;1.63;;
73264;SDS011;61493;51.008;14.088;2022-09-09T00:11:49;1.77;;;1.27;;
73264;SDS011;61493;51.008;14.088;2022-09-09T00:16:56;2.15;;;1.50;;
73264;SDS011;61493;51.008;14.088;2022-09-09T00:19:39;3.50;;;1.45;;
73264;SDS011;61493;51.008;14.088;2022-09-09T00:24:53;3.08;;;1.83;;
73264;SDS011;61493;51.008;14.088;2022-09-09T00:30:18;3.15;;;1.60;;
73264;SDS011;61493;51.008;14.088;2022-09-09T00:33:10;3.00;;;1.48;;
73264;SDS011;61493;51.008;14.088;2022-09-09T00:35:37;3.95;;;1.30;;
73264;SDS011;61493;51.008;14.088;2022-09-09T00:38:13;1.55;;;1.23;;
73264;SDS011;61493;51.008;14.088;2022-09-09T00:40:50;3.28;;;1.67;;
73264;SDS011;61493;51.008;14.088;2022-09-09T00:43:31;3.38;;;1.50;;
73264;SDS011;61493;51.008;14.088;2022-09-09T00:46:05;1.88;;;1.35;;
73264;SDS011;61493;51.008;14.088;2022-09-09T00:48:54;5.20;;;1.70;;
73264;SDS011;61493;51.008;14.088;2022-09-09T00:51:28;2.58;;;1.83;;
73264;SDS011;61493;51.008;14.088;2022-09-09T00:54:20;3.33;;;2.03;;
73264;SDS011;61493;51.008;14.088;2022-09-09T01:02:13;2.50;;;1.55;;
73264;SDS011;61493;51.008;14.088;2022-09-09T01:04:47;2.92;;;2.00;;
73264;SDS011;61493;51.008;14.088;2022-09-09T01:07:18;3.33;;;1.70;;
73264;SDS011;61493;51.008;14.088;2022-09-09T01:09:52;4.93;;;3.28;;
73264;SDS011;61493;51.008;14.088;2022-09-09T01:12:24;6.18;;;4.50;;
73264;SDS011;61493;51.008;14.088;2022-09-09T01:18:08;3.22;;;2.10;;
73264;SDS011;61493;51.008;14.088;2022-09-09T01:24:04;4.57;;;2.30;;
73264;SDS011;61493;51.008;14.088;2022-09-09T01:26:42;2.08;;;1.67;;
73264;SDS011;61493;51.008;14.088;2022-09-09T01:29:13;4.75;;;2.33;;
73264;SDS011;61493;51.008;14.088;2022-09-09T01:32:02;4.45;;;2.17;;
73264;SDS011;61493;51.008;14.088;2022-09-09T01:34:38;3.22;;;1.90;;
73264;SDS011;61493;51.008;14.088;2022-09-09T01:37:06;2.20;;;1.50;;
73264;SDS011;61493;51.008;14.088;2022-09-09T01:39:34;2.00;;;1.38;;
73264;SDS011;61493;51.008;14.088;2022-09-09T01:42:01;2.28;;;1.23;;
73264;SDS011;61493;51.008;14.088;2022-09-09T01:44:27;2.67;;;1.45;;
73264;SDS011;61493;51.008;14.088;2022-09-09T01:46:54;4.00;;;1.60;;
73264;SDS011;61493;51.008;14.088;2022-09-09T01:49:20;4.20;;;1.50;;
73264;SDS011;61493;51.008;14.088;2022-09-09T01:51:48;1.95;;;1.23;;
73264;SDS011;61493;51.008;14.088;2022-09-09T01:54:16;1.77;;;1.20;;
73264;SDS011;61493;51.008;14.088;2022-09-09T02:04:57;3.63;;;1.50;;
73264;SDS011;61493;51.008;14.088;2022-09-09T02:13:01;2.95;;;1.20;;
73264;SDS011;61493;51.008;14.088;2022-09-09T02:15:35;2.67;;;1.20;;
73264;SDS011;61493;51.008;14.088;2022-09-09T02:18:08;2.40;;;1.33;;
73264;SDS011;61493;51.008;14.088;2022-09-09T02:20:38;2.95;;;1.35;;
73264;SDS011;61493;51.008;14.088;2022-09-09T02:23:05;2.88;;;1.50;;
73264;SDS011;61493;51.008;14.088;2022-09-09T02:25:32;3.88;;;1.60;;
73264;SDS011;61493;51.008;14.088;2022-09-09T02:28:00;3.05;;;1.20;;
73264;SDS011;61493;51.008;14.088;2022-09-09T02:30:28;2.00;;;1.30;;
73264;SDS011;61493;51.008;14.088;2022-09-09T02:32:57;4.15;;;1.65;;
73264;SDS011;61493;51.008;14.088;2022-09-09T02:35:24;1.83;;;1.23;;
73264;SDS011;61493;51.008;14.088;2022-09-09T02:37:52;2.05;;;1.40;;
73264;SDS011;61493;51.008;14.088;2022-09-09T02:40:20;2.78;;;2.10;;
73264;SDS011;61493;51.008;14.088;2022-09-09T02:42:47;3.03;;;1.55;;
73264;SDS011;61493;51.008;14.088;2022-09-09T02:45:14;2.35;;;1.48;;
73264;SDS011;61493;51.008;14.088;2022-09-09T02:47:50;3.78;;;1.42;;
73264;SDS011;61493;51.008;14.088;2022-09-09T02:50:33;2.38;;;1.52;;
73264;SDS011;61493;51.008;14.088;2022-09-09T02:53:19;2.67;;;1.60;;
73264;SDS011;61493;51.008;14.088;2022-09-09T02:56:05;4.90;;;2.55;;
73264;SDS011;61493;51.008;14.088;2022-09-09T02:58:38;3.88;;;2.05;;
73264;SDS011;61493;51.008;14.088;2022-09-09T03:01:04;3.90;;;1.80;;
73264;SDS011;61493;51.008;14.088;2022-09-09T03:03:30;5.10;;;1.92;;
73264;SDS011;61493;51.008;14.088;2022-09-09T03:05:56;1.73;;;1.50;;
73264;SDS011;61493;51.008;14.088;2022-09-09T03:08:22;2.92;;;1.60;;
73264;SDS011;61493;51.008;14.088;2022-09-09T03:10:47;3.15;;;1.98;;
73264;SDS011;61493;51.008;14.088;2022-09-09T03:13:12;2.33;;;1.90;;
73264;SDS011;61493;51.008;14.088;2022-09-09T03:15:40;4.25;;;1.85;;
73264;SDS011;61493;51.008;14.088;2022-09-09T03:18:06;3.97;;;2.03;;
73264;SDS011;61493;51.008;14.088;2022-09-09T03:20:31;5.10;;;2.30;;
73264;SDS011;61493;51.008;14.088;2022-09-09T03:22:57;2.90;;;2.13;;
73264;SDS011;61493;51.008;14.088;2022-09-09T03:25:24;5.65;;;2.65;;
73264;SDS011;61493;51.008;14.088;2022-09-09T03:27:50;2.47;;;2.10;;
73264;SDS011;61493;51.008;14.088;2022-09-09T03:30:19;4.35;;;2.20;;
73264;SDS011;61493;51.008;14.088;2022-09-09T03:32:48;4.40;;;2.28;;
73264;SDS011;61493;51.008;14.088;2022-09-09T03:35:17;3.67;;;2.20;;
73264;SDS011;61493;51.008;14.088;2022-09-09T03:37:43;4.07;;;2.92;;
73264;SDS011;61493;51.008;14.088;2022-09-09T03:40:09;5.22;;;2.60;;
73264;SDS011;61493;51.008;14.088;2022-09-09T03:42:35;3.63;;;2.55;;
73264;SDS011;61493;51.008;14.088;2022-09-09T03:45:02;4.13;;;2.72;;
73264;SDS011;61493;51.008;14.088;2022-09-09T03:47:28;5.07;;;2.50;;
73264;SDS011;61493;51.008;14.088;2022-09-09T03:49:54;4.35;;;2.70;;
73264;SDS011;61493;51.008;14.088;2022-09-09T03:52:19;6.25;;;2.83;;
73264;SDS011;61493;51.008;14.088;2022-09-09T03:54:46;4.57;;;2.83;;
73264;SDS011;61493;51.008;14.088;2022-09-09T03:57:11;4.20;;;2.78;;
73264;SDS011;61493;51.008;14.088;2022-09-09T03:59:38;4.05;;;2.70;;
73264;SDS011;61493;51.008;14.088;2022-09-09T04:02:04;6.70;;;2.78;;
73264;SDS011;61493;51.008;14.088;2022-09-09T04:04:29;5.65;;;3.05;;
73264;SDS011;61493;51.008;14.088;2022-09-09T04:06:55;8.10;;;3.00;;
73264;SDS011;61493;51.008;14.088;2022-09-09T04:09:20;3.80;;;2.70;;
73264;SDS011;61493;51.008;14.088;2022-09-09T04:11:45;5.57;;;3.17;;
73264;SDS011;61493;51.008;14.088;2022-09-09T04:14:11;6.63;;;3.00;;
73264;SDS011;61493;51.008;14.088;2022-09-09T04:16:37;8.82;;;3.05;;
73264;SDS011;61493;51.008;14.088;2022-09-09T04:19:03;4.68;;;3.22;;
73264;SDS011;61493;51.008;14.088;2022-09-09T04:21:32;5.72;;;3.60;;
73264;SDS011;61493;51.008;14.088;2022-09-09T04:23:58;5.72;;;3.40;;
73264;SDS011;61493;51.008;14.088;2022-09-09T04:26:23;8.13;;;3.83;;
73264;SDS011;61493;51.008;14.088;2022-09-09T04:28:49;5.35;;;3.17;;
73264;SDS011;61493;51.008;14.088;2022-09-09T04:31:16;4.47;;;3.10;;
73264;SDS011;61493;51.008;14.088;2022-09-09T04:33:45;4.15;;;2.75;;
73264;SDS011;61493;51.008;14.088;2022-09-09T04:36:11;6.20;;;3.50;;
73264;SDS011;61493;51.008;14.088;2022-09-09T04:38:37;5.95;;;2.95;;
73264;SDS011;61493;51.008;14.088;2022-09-09T04:41:03;4.28;;;2.92;;
73264;SDS011;61493;51.008;14.088;2022-09-09T04:43:28;8.25;;;3.03;;
73264;SDS011;61493;51.008;14.088;2022-09-09T04:45:55;6.80;;;3.03;;
73264;SDS011;61493;51.008;14.088;2022-09-09T04:48:20;3.60;;;2.85;;
73264;SDS011;61493;51.008;14.088;2022-09-09T04:50:56;7.30;;;3.20;;
73264;SDS011;61493;51.008;14.088;2022-09-09T04:53:22;4.32;;;2.63;;
73264;SDS011;61493;51.008;14.088;2022-09-09T04:55:48;4.63;;;2.67;;
73264;SDS011;61493;51.008;14.088;2022-09-09T04:58:14;5.22;;;2.92;;
73264;SDS011;61493;51.008;14.088;2022-09-09T05:00:39;4.35;;;2.50;;
73264;SDS011;61493;51.008;14.088;2022-09-09T05:03:05;6.30;;;2.40;;
73264;SDS011;61493;51.008;14.088;2022-09-09T05:05:31;5.47;;;3.40;;
73264;SDS011;61493;51.008;14.088;2022-09-09T05:08:05;6.22;;;2.67;;
73264;SDS011;61493;51.008;14.088;2022-09-09T05:10:32;4.72;;;2.67;;
73264;SDS011;61493;51.008;14.088;2022-09-09T05:12:58;6.03;;;3.22;;
73264;SDS011;61493;51.008;14.088;2022-09-09T05:15:23;6.88;;;2.72;;
73264;SDS011;61493;51.008;14.088;2022-09-09T05:17:49;3.05;;;2.55;;
73264;SDS011;61493;51.008;14.088;2022-09-09T05:20:14;3.85;;;2.25;;
73264;SDS011;61493;51.008;14.088;2022-09-09T05:22:40;4.78;;;2.72;;
73264;SDS011;61493;51.008;14.088;2022-09-09T05:25:05;4.20;;;2.60;;
73264;SDS011;61493;51.008;14.088;2022-09-09T05:27:31;7.40;;;3.13;;
73264;SDS011;61493;51.008;14.088;2022-09-09T05:29:59;4.30;;;2.35;;
73264;SDS011;61493;51.008;14.088;2022-09-09T05:32:24;4.47;;;2.40;;
73264;SDS011;61493;51.008;14.088;2022-09-09T05:34:49;3.78;;;2.38;;
73264;SDS011;61493;51.008;14.088;2022-09-09T05:37:15;4.22;;;2.70;;
73264;SDS011;61493;51.008;14.088;2022-09-09T05:39:41;2.85;;;2.22;;
73264;SDS011;61493;51.008;14.088;2022-09-09T05:42:06;17.50;;;10.48;;
73264;SDS011;61493;51.008;14.088;2022-09-09T05:44:32;9.02;;;5.47;;
73264;SDS011;61493;51.008;14.088;2022-09-09T05:46:57;3.78;;;2.58;;
73264;SDS011;61493;51.008;14.088;2022-09-09T05:49:22;5.22;;;2.30;;
73264;SDS011;61493;51.008;14.088;2022-09-09T05:51:48;3.90;;;2.22;;
73264;SDS011;61493;51.008;14.088;2022-09-09T05:54:15;3.47;;;2.70;;
73264;SDS011;61493;51.008;14.088;2022-09-09T05:56:40;4.70;;;2.92;;
73264;SDS011;61493;51.008;14.088;2022-09-09T05:59:06;4.60;;;2.30;;
73264;SDS011;61493;51.008;14.088;2022-09-09T06:01:35;7.60;;;2.30;;
73264;SDS011;61493;51.008;14.088;2022-09-09T06:06:31;3.28;;;2.28;;
73264;SDS011;61493;51.008;14.088;2022-09-09T06:09:01;6.78;;;2.33;;
73264;SDS011;61493;51.008;14.088;2022-09-09T06:11:28;4.38;;;2.10;;
73264;SDS011;61493;51.008;14.088;2022-09-09T06:13:58;5.65;;;1.73;;
73264;SDS011;61493;51.008;14.088;2022-09-09T06:16:25;4.97;;;1.80;;
73264;SDS011;61493;51.008;14.088;2022-09-09T06:18:55;3.58;;;1.80;;
73264;SDS011;61493;51.008;14.088;2022-09-09T06:21:26;4.55;;;2.28;;
73264;SDS011;61493;51.008;14.088;2022-09-09T06:23:53;5.45;;;2.55;;
73264;SDS011;61493;51.008;14.088;2022-09-09T06:26:20;5.32;;;2.88;;
73264;SDS011;61493;51.008;14.088;2022-09-09T06:28:47;2.15;;;1.65;;
73264;SDS011;61493;51.008;14.088;2022-09-09T06:31:14;5.38;;;2.10;;
73264;SDS011;61493;51.008;14.088;2022-09-09T06:33:52;5.22;;;1.85;;
73264;SDS011;61493;51.008;14.088;2022-09-09T06:36:19;2.78;;;1.73;;
73264;SDS011;61493;51.008;14.088;2022-09-09T06:38:46;3.13;;;1.55;;
73264;SDS011;61493;51.008;14.088;2022-09-09T06:41:12;2.97;;;1.80;;
73264;SDS011;61493;51.008;14.088;2022-09-09T06:43:40;2.20;;;1.63;;
73264;SDS011;61493;51.008;14.088;2022-09-09T06:46:06;3.55;;;1.58;;
73264;SDS011;61493;51.008;14.088;2022-09-09T06:48:34;2.00;;;1.42;;
73264;SDS011;61493;51.008;14.088;2022-09-09T06:51:03;3.58;;;1.70;;
73264;SDS011;61493;51.008;14.088;2022-09-09T06:53:31;2.22;;;1.15;;
73264;SDS011;61493;51.008;14.088;2022-09-09T06:58:35;2.40;;;1.40;;
73264;SDS011;61493;51.008;14.088;2022-09-09T07:01:02;2.35;;;1.20;;
73264;SDS011;61493;51.008;14.088;2022-09-09T07:03:31;1.65;;;1.20;;
73264;SDS011;61493;51.008;14.088;2022-09-09T07:05:56;1.75;;;1.10;;
73264;SDS011;61493;51.008;14.088;2022-09-09T07:08:22;1.83;;;1.20;;
73264;SDS011;61493;51.008;14.088;2022-09-09T07:10:48;2.10;;;1.20;;
73264;SDS011;61493;51.008;14.088;2022-09-09T07:13:14;2.38;;;1.10;;
73264;SDS011;61493;51.008;14.088;2022-09-09T07:15:40;1.83;;;1.20;;
73264;SDS011;61493;51.008;14.088;2022-09-09T07:18:07;2.55;;;1.17;;
73264;SDS011;61493;51.008;14.088;2022-09-09T07:20:35;2.58;;;1.20;;
73264;SDS011;61493;51.008;14.088;2022-09-09T07:23:01;3.72;;;1.30;;
73264;SDS011;61493;51.008;14.088;2022-09-09T07:25:26;4.00;;;1.10;;
73264;SDS011;61493;51.008;14.088;2022-09-09T07:27:55;2.20;;;1.25;;
73264;SDS011;61493;51.008;14.088;2022-09-09T07:30:21;2.17;;;1.00;;
73264;SDS011;61493;51.008;14.088;2022-09-09T07:32:46;2.55;;;1.30;;
73264;SDS011;61493;51.008;14.088;2022-09-09T07:35:12;2.88;;;1.40;;
73264;SDS011;61493;51.008;14.088;2022-09-09T07:37:37;1.88;;;1.13;;
73264;SDS011;61493;51.008;14.088;2022-09-09T07:40:03;2.42;;;0.90;;
73264;SDS011;61493;51.008;14.088;2022-09-09T07:42:30;3.08;;;1.23;;
73264;SDS011;61493;51.008;14.088;2022-09-09T07:44:55;5.90;;;1.45;;
73264;SDS011;61493;51.008;14.088;2022-09-09T07:47:20;5.97;;;1.20;;
73264;SDS011;61493;51.008;14.088;2022-09-09T07:49:46;1.80;;;0.93;;
73264;SDS011;61493;51.008;14.088;2022-09-09T07:52:11;3.05;;;1.10;;
73264;SDS011;61493;51.008;14.088;2022-09-09T07:54:37;1.42;;;0.75;;
73264;SDS011;61493;51.008;14.088;2022-09-09T07:57:02;1.40;;;0.80;;
73264;SDS011;61493;51.008;14.088;2022-09-09T07:59:29;2.42;;;0.90;;
73264;SDS011;61493;51.008;14.088;2022-09-09T08:01:55;1.77;;;1.05;;
73264;SDS011;61493;51.008;14.088;2022-09-09T08:04:21;7.57;;;1.65;;
73264;SDS011;61493;51.008;14.088;2022-09-09T08:06:52;1.48;;;0.65;;
73264;SDS011;61493;51.008;14.088;2022-09-09T08:09:19;5.10;;;1.17;;
73264;SDS011;61493;51.008;14.088;2022-09-09T08:11:45;1.70;;;0.85;;
73264;SDS011;61493;51.008;14.088;2022-09-09T08:14:12;2.42;;;0.90;;
73264;SDS011;61493;51.008;14.088;2022-09-09T08:16:39;4.82;;;1.35;;
73264;SDS011;61493;51.008;14.088;2022-09-09T08:19:06;2.47;;;1.10;;
73264;SDS011;61493;51.008;14.088;2022-09-09T08:21:33;3.78;;;1.95;;
73264;SDS011;61493;51.008;14.088;2022-09-09T08:24:01;1.10;;;0.77;;
73264;SDS011;61493;51.008;14.088;2022-09-09T08:26:32;1.00;;;0.50;;
73264;SDS011;61493;51.008;14.088;2022-09-09T08:29:03;1.95;;;0.75;;
73264;SDS011;61493;51.008;14.088;2022-09-09T08:31:30;1.83;;;0.98;;
73264;SDS011;61493;51.008;14.088;2022-09-09T08:33:58;1.65;;;0.75;;
73264;SDS011;61493;51.008;14.088;2022-09-09T08:36:26;1.75;;;0.80;;
73264;SDS011;61493;51.008;14.088;2022-09-09T08:38:53;2.05;;;1.02;;
73264;SDS011;61493;51.008;14.088;2022-09-09T08:44:11;2.45;;;0.95;;
73264;SDS011;61493;51.008;14.088;2022-09-09T08:52:28;2.20;;;0.90;;
73264;SDS011;61493;51.008;14.088;2022-09-09T08:54:56;2.72;;;0.75;;
73264;SDS011;61493;51.008;14.088;2022-09-09T08:57:28;1.77;;;1.35;;
73264;SDS011;61493;51.008;14.088;2022-09-09T08:59:56;1.10;;;0.80;;
73264;SDS011;61493;51.008;14.088;2022-09-09T09:05:23;1.42;;;0.95;;
73264;SDS011;61493;51.008;14.088;2022-09-09T09:10:58;1.15;;;0.90;;
73264;SDS011;61493;51.008;14.088;2022-09-09T09:13:34;1.55;;;0.73;;
73264;SDS011;61493;51.008;14.088;2022-09-09T09:18:57;3.05;;;1.48;;
73264;SDS011;61493;51.008;14.088;2022-09-09T09:21:43;4.30;;;1.30;;
73264;SDS011;61493;51.008;14.088;2022-09-09T09:24:42;2.58;;;1.75;;
73264;SDS011;61493;51.008;14.088;2022-09-09T09:27:33;2.03;;;1.23;;
73264;SDS011;61493;51.008;14.088;2022-09-09T09:30:21;2.28;;;1.38;;
73264;SDS011;61493;51.008;14.088;2022-09-09T09:32:59;3.88;;;2.00;;
73264;SDS011;61493;51.008;14.088;2022-09-09T09:35:27;4.72;;;1.88;;
73264;SDS011;61493;51.008;14.088;2022-09-09T09:37:52;2.92;;;1.30;;
73264;SDS011;61493;51.008;14.088;2022-09-09T09:40:18;3.20;;;1.30;;
73264;SDS011;61493;51.008;14.088;2022-09-09T09:48:08;1.73;;;1.30;;
73264;SDS011;61493;51.008;14.088;2022-09-09T09:50:35;3.28;;;1.67;;
73264;SDS011;61493;51.008;14.088;2022-09-09T09:53:02;4.07;;;1.70;;
73264;SDS011;61493;51.008;14.088;2022-09-09T09:55:44;2.20;;;1.40;;
73264;SDS011;61493;51.008;14.088;2022-09-09T09:58:15;2.88;;;1.73;;
73264;SDS011;61493;51.008;14.088;2022-09-09T10:00:51;5.47;;;1.90;;
73264;SDS011;61493;51.008;14.088;2022-09-09T10:03:22;3.42;;;1.60;;
73264;SDS011;61493;51.008;14.088;2022-09-09T10:05:48;4.10;;;1.67;;
73264;SDS011;61493;51.008;14.088;2022-09-09T10:08:14;4.53;;;1.95;;
73264;SDS011;61493;51.008;14.088;2022-09-09T10:30:02;2.30;;;1.13;;
73264;SDS011;61493;51.008;14.088;2022-09-09T10:35:09;1.15;;;0.93;;
73264;SDS011;61493;51.008;14.088;2022-09-09T10:37:58;3.22;;;1.25;;
73264;SDS011;61493;51.008;14.088;2022-09-09T10:43:13;1.02;;;0.82;;
73264;SDS011;61493;51.008;14.088;2022-09-09T10:45:49;1.30;;;0.75;;
73264;SDS011;61493;51.008;14.088;2022-09-09T10:48:28;1.52;;;0.47;;
73264;SDS011;61493;51.008;14.088;2022-09-09T10:54:09;1.73;;;0.70;;
73264;SDS011;61493;51.008;14.088;2022-09-09T10:56:40;2.00;;;0.63;;
73264;SDS011;61493;51.008;14.088;2022-09-09T10:59:12;0.50;;;0.22;;
73264;SDS011;61493;51.008;14.088;2022-09-09T11:01:44;0.93;;;0.47;;
73264;SDS011;61493;51.008;14.088;2022-09-09T11:04:22;2.20;;;0.60;;
73264;SDS011;61493;51.008;14.088;2022-09-09T11:06:53;1.95;;;0.60;;
73264;SDS011;61493;51.008;14.088;2022-09-09T11:09:21;2.50;;;0.73;;
73264;SDS011;61493;51.008;14.088;2022-09-09T11:11:51;1.27;;;0.98;;
73264;SDS011;61493;51.008;14.088;2022-09-09T11:16:57;1.20;;;0.60;;
73264;SDS011;61493;51.008;14.088;2022-09-09T11:19:33;1.42;;;0.60;;
73264;SDS011;61493;51.008;14.088;2022-09-09T11:22:22;2.50;;;0.90;;
73264;SDS011;61493;51.008;14.088;2022-09-09T11:25:08;1.20;;;0.70;;
73264;SDS011;61493;51.008;14.088;2022-09-09T11:27:58;1.25;;;0.70;;
73264;SDS011;61493;51.008;14.088;2022-09-09T11:35:56;2.67;;;1.02;;
73264;SDS011;61493;51.008;14.088;2022-09-09T11:40:57;2.25;;;0.98;;
73264;SDS011;61493;51.008;14.088;2022-09-09T11:43:27;6.35;;;1.60;;
73264;SDS011;61493;51.008;14.088;2022-09-09T11:45:56;2.55;;;1.00;;
73264;SDS011;61493;51.008;14.088;2022-09-09T11:48:34;2.85;;;1.50;;
73264;SDS011;61493;51.008;14.088;2022-09-09T11:51:03;3.35;;;1.45;;
73264;SDS011;61493;51.008;14.088;2022-09-09T11:53:34;2.08;;;1.27;;
73264;SDS011;61493;51.008;14.088;2022-09-09T11:56:13;2.63;;;1.50;;
73264;SDS011;61493;51.008;14.088;2022-09-09T11:58:55;3.17;;;1.50;;
73264;SDS011;61493;51.008;14.088;2022-09-09T12:04:17;2.95;;;1.30;;
73264;SDS011;61493;51.008;14.088;2022-09-09T12:12:44;4.60;;;1.52;;
73264;SDS011;61493;51.008;14.088;2022-09-09T12:17:47;9.80;;;3.20;;
73264;SDS011;61493;51.008;14.088;2022-09-09T12:20:22;7.97;;;2.33;;
73264;SDS011;61493;51.008;14.088;2022-09-09T12:23:24;4.63;;;2.13;;
73264;SDS011;61493;51.008;14.088;2022-09-09T12:25:57;4.60;;;2.72;;
73264;SDS011;61493;51.008;14.088;2022-09-09T12:28:40;4.33;;;2.20;;
73264;SDS011;61493;51.008;14.088;2022-09-09T12:31:15;4.95;;;2.17;;
73264;SDS011;61493;51.008;14.088;2022-09-09T12:33:47;3.92;;;1.70;;
73264;SDS011;61493;51.008;14.088;2022-09-09T12:36:23;5.30;;;1.83;;
73264;SDS011;61493;51.008;14.088;2022-09-09T12:38:53;6.65;;;2.20;;
73264;SDS011;61493;51.008;14.088;2022-09-09T12:41:23;3.53;;;1.65;;
73264;SDS011;61493;51.008;14.088;2022-09-09T12:43:50;2.80;;;1.38;;
73264;SDS011;61493;51.008;14.088;2022-09-09T12:49:02;3.17;;;1.50;;
73264;SDS011;61493;51.008;14.088;2022-09-09T12:51:29;3.35;;;1.45;;
73264;SDS011;61493;51.008;14.088;2022-09-09T12:53:57;4.18;;;1.52;;
73264;SDS011;61493;51.008;14.088;2022-09-09T12:56:25;5.95;;;2.92;;
73264;SDS011;61493;51.008;14.088;2022-09-09T12:58:54;5.32;;;2.20;;
73264;SDS011;61493;51.008;14.088;2022-09-09T13:03:51;4.75;;;2.08;;
73264;SDS011;61493;51.008;14.088;2022-09-09T13:06:24;15.23;;;4.20;;
73264;SDS011;61493;51.008;14.088;2022-09-09T13:08:52;3.75;;;2.10;;
73264;SDS011;61493;51.008;14.088;2022-09-09T13:11:23;2.70;;;1.83;;
73264;SDS011;61493;51.008;14.088;2022-09-09T13:14:00;3.85;;;1.95;;
73264;SDS011;61493;51.008;14.088;2022-09-09T13:16:26;3.60;;;1.98;;
73264;SDS011;61493;51.008;14.088;2022-09-09T13:18:57;3.25;;;2.33;;
73264;SDS011;61493;51.008;14.088;2022-09-09T13:21:31;3.25;;;1.90;;
73264;SDS011;61493;51.008;14.088;2022-09-09T13:24:05;3.60;;;2.00;;
73264;SDS011;61493;51.008;14.088;2022-09-09T13:26:32;2.75;;;1.73;;
73264;SDS011;61493;51.008;14.088;2022-09-09T13:29:18;3.22;;;1.73;;
73264;SDS011;61493;51.008;14.088;2022-09-09T13:31:44;2.75;;;1.85;;
73264;SDS011;61493;51.008;14.088;2022-09-09T13:34:13;3.65;;;2.50;;
73264;SDS011;61493;51.008;14.088;2022-09-09T13:36:52;4.95;;;2.35;;
73264;SDS011;61493;51.008;14.088;2022-09-09T13:39:22;4.03;;;2.40;;
73264;SDS011;61493;51.008;14.088;2022-09-09T13:41:48;3.58;;;2.63;;
73264;SDS011;61493;51.008;14.088;2022-09-09T13:44:46;5.25;;;3.20;;
73264;SDS011;61493;51.008;14.088;2022-09-09T13:47:17;4.30;;;2.70;;
73264;SDS011;61493;51.008;14.088;2022-09-09T13:49:44;4.15;;;2.42;;
73264;SDS011;61493;51.008;14.088;2022-09-09T13:52:17;8.43;;;4.63;;
73264;SDS011;61493;51.008;14.088;2022-09-09T13:54:47;4.82;;;2.38;;
73264;SDS011;61493;51.008;14.088;2022-09-09T13:57:14;5.13;;;2.30;;
73264;SDS011;61493;51.008;14.088;2022-09-09T13:59:45;5.80;;;2.83;;
73264;SDS011;61493;51.008;14.088;2022-09-09T14:02:11;5.80;;;2.70;;
73264;SDS011;61493;51.008;14.088;2022-09-09T14:04:36;7.93;;;3.30;;
73264;SDS011;61493;51.008;14.088;2022-09-09T14:07:02;6.20;;;2.58;;
73264;SDS011;61493;51.008;14.088;2022-09-09T14:09:28;5.93;;;2.70;;
73264;SDS011;61493;51.008;14.088;2022-09-09T14:11:53;5.55;;;3.00;;
73264;SDS011;61493;51.008;14.088;2022-09-09T14:14:20;5.78;;;2.95;;
73264;SDS011;61493;51.008;14.088;2022-09-09T14:16:45;5.40;;;3.53;;
73264;SDS011;61493;51.008;14.088;2022-09-09T14:19:10;5.97;;;3.08;;
73264;SDS011;61493;51.008;14.088;2022-09-09T14:21:36;5.55;;;2.90;;
73264;SDS011;61493;51.008;14.088;2022-09-09T14:24:01;7.72;;;3.67;;
73264;SDS011;61493;51.008;14.088;2022-09-09T14:26:27;8.40;;;3.38;;
73264;SDS011;61493;51.008;14.088;2022-09-09T14:28:54;5.40;;;2.78;;
73264;SDS011;61493;51.008;14.088;2022-09-09T14:31:20;4.82;;;1.83;;
73264;SDS011;61493;51.008;14.088;2022-09-09T14:33:45;3.85;;;1.52;;
73264;SDS011;61493;51.008;14.088;2022-09-09T14:36:11;4.47;;;1.98;;
73264;SDS011;61493;51.008;14.088;2022-09-09T14:38:37;7.15;;;2.08;;
73264;SDS011;61493;51.008;14.088;2022-09-09T14:41:04;4.78;;;1.92;;
73264;SDS011;61493;51.008;14.088;2022-09-09T14:43:30;4.40;;;1.77;;
73264;SDS011;61493;51.008;14.088;2022-09-09T14:45:57;3.85;;;1.45;;
73264;SDS011;61493;51.008;14.088;2022-09-09T14:48:30;4.55;;;1.42;;
73264;SDS011;61493;51.008;14.088;2022-09-09T14:50:55;3.88;;;1.50;;
73264;SDS011;61493;51.008;14.088;2022-09-09T14:53:21;3.00;;;1.55;;
73264;SDS011;61493;51.008;14.088;2022-09-09T14:55:49;3.88;;;1.73;;
73264;SDS011;61493;51.008;14.088;2022-09-09T14:58:15;3.17;;;1.33;;
73264;SDS011;61493;51.008;14.088;2022-09-09T15:00:40;4.43;;;1.80;;
73264;SDS011;61493;51.008;14.088;2022-09-09T15:03:06;3.85;;;2.50;;
73264;SDS011;61493;51.008;14.088;2022-09-09T15:05:31;4.03;;;2.10;;
73264;SDS011;61493;51.008;14.088;2022-09-09T15:07:56;3.60;;;2.00;;
73264;SDS011;61493;51.008;14.088;2022-09-09T15:10:23;5.63;;;2.25;;
73264;SDS011;61493;51.008;14.088;2022-09-09T15:12:49;3.95;;;2.08;;
73264;SDS011;61493;51.008;14.088;2022-09-09T15:15:14;3.63;;;2.13;;
73264;SDS011;61493;51.008;14.088;2022-09-09T15:17:40;4.70;;;2.55;;
73264;SDS011;61493;51.008;14.088;2022-09-09T15:20:05;3.47;;;1.63;;
73264;SDS011;61493;51.008;14.088;2022-09-09T15:22:31;3.80;;;1.70;;
73264;SDS011;61493;51.008;14.088;2022-09-09T15:24:57;3.50;;;1.90;;
73264;SDS011;61493;51.008;14.088;2022-09-09T15:27:22;7.13;;;2.97;;
73264;SDS011;61493;51.008;14.088;2022-09-09T15:29:48;4.65;;;2.47;;
73264;SDS011;61493;51.008;14.088;2022-09-09T15:32:14;4.10;;;1.88;;
73264;SDS011;61493;51.008;14.088;2022-09-09T15:34:39;4.47;;;1.65;;
73264;SDS011;61493;51.008;14.088;2022-09-09T15:37:04;2.72;;;1.20;;
73264;SDS011;61493;51.008;14.088;2022-09-09T15:39:31;2.90;;;1.38;;
73264;SDS011;61493;51.008;14.088;2022-09-09T15:41:56;2.38;;;1.10;;
73264;SDS011;61493;51.008;14.088;2022-09-09T15:44:22;2.05;;;1.10;;
73264;SDS011;61493;51.008;14.088;2022-09-09T15:46:50;6.18;;;1.75;;
73264;SDS011;61493;51.008;14.088;2022-09-09T15:49:21;2.47;;;0.98;;
73264;SDS011;61493;51.008;14.088;2022-09-09T15:51:51;7.07;;;1.30;;
73264;SDS011;61493;51.008;14.088;2022-09-09T15:54:18;1.75;;;0.98;;
73264;SDS011;61493;51.008;14.088;2022-09-09T15:56:45;6.10;;;1.33;;
73264;SDS011;61493;51.008;14.088;2022-09-09T15:59:16;2.35;;;1.00;;
73264;SDS011;61493;51.008;14.088;2022-09-09T16:01:51;2.97;;;1.20;;
73264;SDS011;61493;51.008;14.088;2022-09-09T16:04:20;4.15;;;1.30;;
73264;SDS011;61493;51.008;14.088;2022-09-09T16:06:50;2.13;;;1.20;;
73264;SDS011;61493;51.008;14.088;2022-09-09T16:09:19;4.97;;;1.60;;
73264;SDS011;61493;51.008;14.088;2022-09-09T16:11:45;11.60;;;4.20;;
73264;SDS011;61493;51.008;14.088;2022-09-09T16:14:12;5.13;;;1.73;;
73264;SDS011;61493;51.008;14.088;2022-09-09T16:16:37;4.88;;;1.75;;
73264;SDS011;61493;51.008;14.088;2022-09-09T16:19:04;4.05;;;1.90;;
73264;SDS011;61493;51.008;14.088;2022-09-09T16:21:33;3.95;;;1.67;;
73264;SDS011;61493;51.008;14.088;2022-09-09T16:24:00;3.67;;;1.85;;
73264;SDS011;61493;51.008;14.088;2022-09-09T16:26:30;1.80;;;1.40;;
73264;SDS011;61493;51.008;14.088;2022-09-09T16:28:57;5.60;;;3.13;;
73264;SDS011;61493;51.008;14.088;2022-09-09T16:31:24;3.55;;;2.17;;
73264;SDS011;61493;51.008;14.088;2022-09-09T16:33:50;6.65;;;2.53;;
73264;SDS011;61493;51.008;14.088;2022-09-09T16:36:17;7.28;;;1.90;;
73264;SDS011;61493;51.008;14.088;2022-09-09T16:38:44;2.83;;;1.70;;
73264;SDS011;61493;51.008;14.088;2022-09-09T16:41:10;5.95;;;1.73;;
73264;SDS011;61493;51.008;14.088;2022-09-09T16:43:37;2.10;;;1.38;;
73264;SDS011;61493;51.008;14.088;2022-09-09T16:46:03;3.75;;;1.17;;
73264;SDS011;61493;51.008;14.088;2022-09-09T16:48:37;3.15;;;1.48;;